Portada
METAR-TAF:

METAR-TAF

Aeroports :

Sept-Îles, Quebec, Canadà

latitud: 50-13N, longitud: 066-16W, altitud: 55 m

Observació

L'informe es va fer fa 34 minuts, a les 19:42 UTC
Vent 11 kt del Nord-Oest amb ràfegues de 18 kt
Temperatura -7°C
Humitat 57%
Pressió 1030 hPa
Visibilitat: 48.3 km
Escasses núvols a una alçada de 4000 ft
Escasses núvols a una alçada de 6000 ft

METAR: CYZV 091942Z 32011G18KT 30SM FEW040 FEW060 M07/M14 A3042 RMK CU1CU1 CU TR CU TR PRESRR SLP306

Hora: 15:16 (20:16 UTC)

Pronòstic

L'informe es va fer fa 2 hores i 36 minuts, a les 17:40 UTC
Pronòstic vàlid del 09 a les 18 UTC al 10 a les 18 UTC
Vent 12 kt del Nord/Nord-Oest amb ràfegues de 22 kt
Visibilitat: 10 km
Escasses núvols a una alçada de 2000 ft
Escasses núvols a una alçada de 5000 ft
Evolucionant progressivament
l' 09 a les 22 UTC al 09 a les 24 UTC
Vent 10 kt del Nord amb ràfegues de 20 kt

TAF: CYZV 091740Z 0918/1018 34012G22KT P6SM FEW020 FEW050 BECMG 0922/0924 36010G20KT RMK NXT FCST BY 100000Z

Observacions i pronòstics meteorològics de més de 4000 aeroports (METAR i TAF).

Les estacions disponibles són els punts grocs i vermells al mapa.

Posi el ratolí al punt desitjat per veure el nom de l'estació.

Feu clic per veure les observacions i els pronòstics meteorològics.

Per canviar el mapa: feu clic els botons verds amb una creu de color negre per apropar; al botó verd amb un guió per allunyar la imatge; o en les fletxes verdes per a mapes adjacents.


METAR-TAF: